Time;durP1;ratioP1;P1;durP2;ratioP2;P2;SDS_P1;SDS_P2;PMS_P1;PMS_P2;Temp;Humidity;BMP_temperature;BMP_pressure;BME280_temperature;BME280_humidity;BME280_pressure;Samples;Min_cycle;Max_cycle;Signal;HPM_P1;HPM_P2
2023/02/09 00:01:37;;;;;;;41.67;18.97;;;-2.10;68.50;;;1.35;44.34;99095.34;5033597;28;20049;-47
2023/02/09 00:04:05;;;;;;;33.13;14.67;;;-2.20;68.40;;;1.38;44.00;99100.47;5033484;28;20049;-45
2023/02/09 00:06:32;;;;;;;22.40;12.50;;;-2.10;68.30;;;1.41;44.43;99101.25;5033589;28;20045;-45
2023/02/09 00:09:01;;;;;;;32.63;15.20;;;-2.10;68.30;;;1.40;44.71;99095.19;5033204;28;20052;-43
2023/02/09 00:14:18;;;;;;;25.90;12.90;;;-2.10;68.50;;;1.34;43.99;99098.06;5033381;28;20053;-48
2023/02/09 00:16:50;;;;;;;48.17;22.37;;;-2.20;68.40;;;1.31;44.14;99091.16;5033477;28;20049;-46
2023/02/09 00:19:19;;;;;;;76.77;35.57;;;-2.20;68.70;;;1.34;44.44;99087.56;5024027;28;20045;-45
2023/02/09 00:21:47;;;;;;;35.13;20.27;;;-2.20;68.60;;;1.35;44.63;99071.75;5033197;28;20060;-46
2023/02/09 00:24:15;;;;;;;31.30;18.17;;;-2.20;68.50;;;1.38;44.75;99078.66;5032929;28;20045;-42
2023/02/09 00:26:43;;;;;;;23.73;14.37;;;-2.10;68.50;;;1.39;44.05;99080.34;5033285;28;20052;-44
2023/02/09 00:29:12;;;;;;;23.83;14.50;;;-2.10;68.70;;;1.37;44.61;99077.78;5033004;28;20044;-45
2023/02/09 00:31:39;;;;;;;21.47;12.17;;;-2.10;68.30;;;1.40;44.05;99079.44;5033277;28;20421;-44
2023/02/09 00:34:07;;;;;;;26.33;12.30;;;-2.20;68.20;;;1.39;44.15;99085.59;5040210;28;20053;-45
2023/02/09 00:36:35;;;;;;;24.03;12.40;;;-2.10;68.20;;;1.40;44.71;99079.44;5031483;28;20053;-43
2023/02/09 00:39:03;;;;;;;24.70;11.83;;;-2.10;68.00;;;1.40;44.13;99074.19;5031509;28;20049;-44
2023/02/09 00:44:17;;;;;;;22.93;11.90;;;-2.10;67.60;;;1.47;44.32;99069.50;5032264;28;20504;-43
2023/02/09 00:46:45;;;;;;;23.63;11.77;;;-1.90;66.80;;;1.51;44.69;99068.44;5031637;28;20045;-43
2023/02/09 00:49:13;;;;;;;20.13;10.73;;;-2.00;66.50;;;1.52;44.41;99064.91;5048018;28;20060;-43
2023/02/09 00:51:41;;;;;;;19.07;10.07;;;-1.90;66.60;;;1.55;43.82;99065.63;5032179;28;20049;-42
2023/02/09 00:54:12;;;;;;;20.80;10.33;;;-1.90;66.10;;;1.56;44.00;99059.44;5032464;28;20056;-43
2023/02/09 00:56:39;;;;;;;22.33;11.43;;;-1.80;65.30;;;1.57;43.52;99062.91;5032610;28;20413;-45
2023/02/09 00:59:07;;;;;;;20.20;10.13;;;-1.80;65.30;;;1.60;43.76;99051.44;5031273;28;20049;-46
2023/02/09 01:01:35;;;;;;;21.30;10.73;;;-1.70;65.20;;;1.64;44.01;99052.97;5031041;28;20057;-47
2023/02/09 01:04:03;;;;;;;20.60;10.47;;;-1.70;65.10;;;1.67;43.68;99056.31;5031790;28;20038;-43
2023/02/09 01:06:31;;;;;;;17.93;9.90;;;-1.60;64.70;;;1.69;43.96;99051.84;5032699;28;20390;-47
2023/02/09 01:08:59;;;;;;;21.77;10.53;;;-1.70;64.70;;;1.71;44.04;99050.00;5032325;28;20042;-43
2023/02/09 01:11:28;;;;;;;20.37;10.73;;;-1.60;64.80;;;1.73;43.47;99057.81;5032303;28;20408;-44
2023/02/09 01:13:58;;;;;;;22.87;10.33;;;-1.60;64.30;;;1.73;43.77;99066.53;5031951;28;20041;-47
2023/02/09 01:16:30;;;;;;;19.33;9.70;;;-1.60;64.60;;;1.73;43.86;99061.28;5015063;28;20072;-46
2023/02/09 01:19:02;;;;;;;21.40;11.10;;;-1.70;64.60;;;1.71;43.54;99052.63;5032167;28;20539;-43
2023/02/09 01:21:30;;;;;;;17.97;10.20;;;-1.70;64.70;;;1.70;43.80;99047.44;5032261;28;20070;-46
2023/02/09 01:23:58;;;;;;;17.70;10.13;;;-1.80;64.80;;;1.67;43.89;99053.69;5031826;28;20394;-43
2023/02/09 01:26:26;;;;;;;20.87;10.77;;;-1.80;64.80;;;1.67;43.54;99051.06;5031270;28;20041;-44
2023/02/09 01:28:54;;;;;;;20.10;9.80;;;-1.80;64.70;;;1.69;43.65;99056.25;5031551;28;20045;-45
2023/02/09 01:31:30;;;;;;;19.17;9.47;;;-1.80;64.90;;;1.70;43.26;99053.53;5025148;28;20053;-46
2023/02/09 01:34:01;;;;;;;23.40;11.17;;;-1.80;64.60;;;1.61;43.33;99048.72;5031643;28;20501;-43
2023/02/09 01:36:30;;;;;;;20.90;11.20;;;-1.90;64.90;;;1.55;43.79;99047.25;5028940;28;20513;-43
2023/02/09 01:39:00;;;;;;;18.97;11.03;;;-2.00;65.50;;;1.50;43.79;99048.38;5031125;28;20041;-45
2023/02/09 01:41:29;;;;;;;25.77;12.37;;;-2.10;66.00;;;1.42;43.80;99045.25;5031942;28;20038;-43
2023/02/09 01:44:06;;;;;;;24.87;12.03;;;-2.20;67.00;;;1.35;44.26;99045.50;5031453;28;20048;-43
2023/02/09 01:46:35;;;;;;;22.03;11.50;;;-2.30;67.20;;;1.31;44.37;99046.56;5031823;28;20042;-43
2023/02/09 01:49:20;;;;;;;25.03;11.40;;;-2.30;67.30;;;1.25;43.77;99048.63;5030271;28;20045;-44
2023/02/09 01:52:02;;;;;;;21.20;11.27;;;-2.30;67.80;;;1.22;43.61;99036.47;5014746;28;20057;-46
2023/02/09 01:54:44;;;;;;;21.07;9.70;;;-2.40;67.60;;;1.20;43.82;99037.47;5024510;28;20041;-44
2023/02/09 01:57:22;;;;;;;25.00;11.03;;;-2.40;67.70;;;1.13;43.60;99037.75;5030005;28;20501;-43
2023/02/09 01:59:59;;;;;;;21.27;11.43;;;-2.50;68.00;;;1.08;43.87;99036.25;5014269;28;20049;-43
2023/02/09 02:02:28;;;;;;;23.50;12.27;;;-2.50;68.60;;;1.04;44.49;99035.53;5022398;28;20045;-43
2023/02/09 02:04:56;;;;;;;24.33;11.97;;;-2.60;68.40;;;0.98;44.77;99046.28;5030356;28;20432;-43
2023/02/09 02:07:55;;;;;;;23.53;12.03;;;-2.60;68.70;;;0.87;44.49;99043.28;5029730;28;20056;-45
2023/02/09 02:10:24;;;;;;;21.43;11.97;;;-2.60;68.90;;;0.90;44.59;99035.28;5022379;28;20037;-47
2023/02/09 02:12:53;;;;;;;25.77;12.40;;;-2.70;69.10;;;0.86;44.57;99046.84;5029581;28;20412;-45
2023/02/09 02:15:29;;;;;;;22.10;12.67;;;-2.70;69.40;;;0.85;45.03;99039.88;5031226;28;20053;-45
2023/02/09 02:18:42;;;;;;;25.03;11.00;;;-2.70;69.30;;;0.80;44.80;99029.59;5014231;28;20049;-43
2023/02/09 02:22:01;;;;;;;19.30;10.73;;;-2.70;69.20;;;0.72;44.70;99039.56;5028680;28;20537;-45
2023/02/09 02:25:00;;;;;;;18.40;11.20;;;-2.80;69.50;;;0.73;44.97;99036.84;5006583;28;20450;-42
2023/02/09 02:28:13;;;;;;;19.47;11.30;;;-2.80;69.70;;;0.73;44.31;99041.25;5022638;28;20034;-43
2023/02/09 02:31:27;;;;;;;20.40;11.13;;;-2.80;69.50;;;0.71;44.86;99043.94;5002611;28;20072;-43
2023/02/09 02:34:09;;;;;;;24.48;12.10;;;-2.70;69.30;;;0.71;44.66;99043.94;5026748;28;20084;-49
2023/02/09 02:37:33;;;;;;;20.97;10.57;;;-2.80;69.70;;;0.63;45.19;99037.31;5024534;28;20054;-44
2023/02/09 02:40:30;;;;;;;21.00;11.03;;;-2.80;69.60;;;0.62;44.93;99038.22;5029130;28;20087;-49
2023/02/09 02:43:22;;;;;;;25.77;11.27;;;-2.80;69.40;;;0.63;44.45;99032.09;5029403;28;20496;-46
2023/02/09 02:46:12;;;;;;;19.23;10.23;;;-2.80;69.60;;;0.62;44.99;99035.59;5025857;28;20515;-43
2023/02/09 02:49:16;;;;;;;23.17;11.67;;;-2.90;69.60;;;0.56;44.88;99037.59;5024728;28;20041;-42
2023/02/09 02:51:48;;;;;;;19.13;10.68;;;-2.90;69.30;;;0.61;44.55;99032.13;5023556;28;20517;-44
2023/02/09 02:54:24;;;;;;;19.77;10.60;;;-3.00;69.50;;;0.56;44.93;99034.09;5029615;28;20045;-47
2023/02/09 02:57:04;;;;;;;22.83;11.80;;;-3.00;69.90;;;0.51;45.43;99029.06;5030972;28;20041;-43
2023/02/09 02:59:47;;;;;;;21.70;11.07;;;-3.10;70.50;;;0.45;45.08;99018.00;5022449;28;20497;-45
2023/02/09 03:02:25;;;;;;;24.13;12.43;;;-3.10;71.00;;;0.50;45.18;99006.38;5029408;28;20417;-43
2023/02/09 03:04:55;;;;;;;26.47;12.70;;;-3.00;70.70;;;0.57;44.89;99006.97;5029337;28;20045;-45
2023/02/09 03:07:23;;;;;;;23.00;12.30;;;-2.90;70.30;;;0.61;45.05;99000.69;5029536;28;20042;-45
2023/02/09 03:09:54;;;;;;;20.50;11.33;;;-2.80;69.60;;;0.65;45.49;99004.88;5031010;28;20038;-42
2023/02/09 03:12:57;;;;;;;21.27;12.30;;;-2.70;69.40;;;0.61;45.53;99008.56;5030343;28;20049;-45
2023/02/09 03:15:48;;;;;;;24.87;10.93;;;-2.60;68.70;;;0.63;44.97;99000.63;5029271;28;20049;-45
2023/02/09 03:18:32;;;;;;;19.53;11.33;;;-2.60;67.90;;;0.61;44.94;99003.31;5029495;28;20049;-42
2023/02/09 03:21:22;;;;;;;21.07;11.33;;;-2.50;68.00;;;0.66;44.76;99009.22;5034047;28;20054;-46
2023/02/09 03:24:03;;;;;;;21.53;11.10;;;-2.50;68.20;;;0.73;44.81;99026.38;5029189;28;20049;-44
2023/02/09 03:26:43;;;;;;;22.90;12.23;;;-2.50;68.30;;;0.78;44.33;99028.81;5025381;28;20041;-43
2023/02/09 03:29:14;;;;;;;23.30;13.10;;;-2.60;68.20;;;0.75;45.00;99032.38;5025272;28;20056;-43
2023/02/09 03:31:42;;;;;;;24.20;12.77;;;-2.80;68.80;;;0.75;45.33;99023.69;5034158;28;20045;-45
2023/02/09 03:34:10;;;;;;;26.03;12.17;;;-2.80;69.10;;;0.72;44.58;99024.69;5033916;28;20038;-43
2023/02/09 03:36:39;;;;;;;25.50;12.70;;;-2.80;69.20;;;0.69;45.36;99019.56;5032822;28;20425;-43
2023/02/09 03:39:07;;;;;;;23.20;12.77;;;-2.80;69.30;;;0.66;45.34;99014.47;5016581;28;20052;-45
2023/02/09 03:41:35;;;;;;;24.63;12.20;;;-2.80;69.50;;;0.66;44.90;99013.59;5033928;28;20413;-44
2023/02/09 03:46:48;;;;;;;22.07;11.30;;;-2.80;69.40;;;0.64;45.15;99005.81;5033982;28;20515;-42
2023/02/09 03:49:16;;;;;;;25.00;12.27;;;-2.70;69.20;;;0.71;45.18;99009.00;5033879;28;20452;-43
2023/02/09 03:51:44;;;;;;;24.70;11.87;;;-2.70;69.10;;;0.76;45.00;99004.44;5033470;28;20061;-47
2023/02/09 03:54:11;;;;;;;24.30;12.53;;;-2.60;68.80;;;0.77;45.15;99006.13;5033493;28;20493;-43
2023/02/09 03:56:39;;;;;;;20.37;11.80;;;-2.70;68.90;;;0.75;45.40;99003.56;5033765;28;20045;-47
2023/02/09 03:59:06;;;;;;;23.83;12.53;;;-2.70;69.30;;;0.76;45.45;99004.44;5033504;28;20536;-43
2023/02/09 04:01:34;;;;;;;26.40;12.53;;;-2.70;69.40;;;0.76;45.28;98999.19;5033637;28;20045;-44
2023/02/09 04:04:03;;;;;;;27.80;13.87;;;-2.70;69.90;;;0.73;45.24;99007.16;5033327;28;20046;-44
2023/02/09 04:06:32;;;;;;;25.60;13.90;;;-2.80;69.30;;;0.69;45.72;99019.56;5024448;28;20037;-43
2023/02/09 04:09:01;;;;;;;25.70;12.00;;;-2.80;69.60;;;0.65;45.26;99019.75;5033340;28;20037;-42
2023/02/09 04:11:29;;;;;;;23.13;12.17;;;-2.90;70.20;;;0.58;45.24;99019.16;5033530;28;20394;-46
2023/02/09 04:13:57;;;;;;;23.57;12.67;;;-3.00;70.40;;;0.58;45.72;99020.03;5033143;28;20042;-44
2023/02/09 04:16:24;;;;;;;24.93;12.30;;;-3.00;70.20;;;0.56;45.70;99016.63;5031691;28;20057;-44
2023/02/09 04:18:52;;;;;;;24.33;12.40;;;-3.00;70.20;;;0.52;45.58;99017.63;5033552;28;20072;-44
2023/02/09 04:21:20;;;;;;;25.33;12.87;;;-3.00;70.50;;;0.54;45.84;99015.84;5032947;28;20054;-44
2023/02/09 04:23:50;;;;;;;26.67;14.40;;;-3.00;70.40;;;0.53;45.46;99021.97;5033465;28;20488;-43
2023/02/09 04:26:18;;;;;;;25.63;12.67;;;-3.00;70.30;;;0.53;45.45;99019.34;5031917;28;20038;-42
2023/02/09 04:28:46;;;;;;;20.80;12.37;;;-2.90;71.30;;;0.52;45.37;99017.63;5033178;28;20037;-46
2023/02/09 04:31:13;;;;;;;21.60;11.73;;;-2.90;70.50;;;0.55;45.17;99021.91;5033345;28;20097;-44
2023/02/09 04:33:41;;;;;;;28.17;13.50;;;-2.90;70.80;;;0.56;45.12;99021.88;5032768;28;20042;-44
2023/02/09 04:36:09;;;;;;;31.83;14.47;;;-2.90;70.60;;;0.53;45.07;99019.34;5032782;28;20037;-45
2023/02/09 04:38:37;;;;;;;29.03;12.97;;;-2.90;70.60;;;0.55;45.15;99021.91;5030526;28;20049;-47
2023/02/09 04:41:05;;;;;;;24.87;13.37;;;-2.90;70.30;;;0.54;45.40;99021.06;5032847;28;20524;-43
2023/02/09 04:43:33;;;;;;;26.13;13.47;;;-2.80;70.10;;;0.54;46.08;99007.97;5024590;28;20044;-43
2023/02/09 04:46:01;;;;;;;22.90;12.27;;;-2.80;69.50;;;0.51;45.13;99009.88;5031323;28;20037;-43
2023/02/09 04:48:29;;;;;;;26.50;13.20;;;-2.80;69.30;;;0.46;45.07;99012.66;5032773;28;20038;-44
2023/02/09 04:50:57;;;;;;;21.33;11.17;;;-2.80;69.10;;;0.41;45.50;99005.91;5032672;28;20085;-43
2023/02/09 04:53:24;;;;;;;27.17;13.10;;;-2.80;68.90;;;0.32;46.04;99004.53;5031204;28;20046;-43
2023/02/09 04:55:52;;;;;;;23.63;12.07;;;-2.80;68.90;;;0.28;46.25;99014.28;5031344;28;20056;-43
2023/02/09 05:01:09;;;;;;;26.47;13.40;;;-3.00;69.80;;;0.18;45.64;98999.88;5032826;28;20038;-45
2023/02/09 05:03:36;;;;;;;23.20;12.80;;;-2.90;69.70;;;0.14;45.63;99001.75;5007499;28;20049;-44
2023/02/09 05:06:05;;;;;;;23.50;13.57;;;-2.90;69.90;;;0.17;46.21;98995.53;5032326;28;20042;-42
2023/02/09 05:08:33;;;;;;;26.63;13.77;;;-3.00;70.00;;;0.18;45.78;98997.25;5030578;28;20041;-44
2023/02/09 05:11:00;;;;;;;24.63;12.33;;;-2.90;70.30;;;0.24;45.76;99001.41;5031199;28;20048;-44
2023/02/09 05:13:28;;;;;;;25.03;13.50;;;-2.90;70.20;;;0.27;46.56;98996.88;5031952;28;20049;-44
2023/02/09 05:15:56;;;;;;;24.00;14.17;;;-3.00;70.20;;;0.30;46.07;98988.88;5032609;28;20404;-43
2023/02/09 05:18:24;;;;;;;27.27;13.73;;;-2.90;70.10;;;0.28;45.63;98988.09;5032146;28;20049;-47
2023/02/09 05:20:51;;;;;;;26.77;14.30;;;-2.90;70.30;;;0.29;45.62;98994.19;5038572;28;20384;-42
2023/02/09 05:23:19;;;;;;;30.53;14.77;;;-2.90;70.20;;;0.30;46.24;98993.28;5031715;28;20068;-43
2023/02/09 05:25:47;;;;;;;43.37;21.23;;;-2.90;70.50;;;0.33;46.23;98995.75;5039315;28;20044;-42
2023/02/09 05:28:15;;;;;;;48.23;25.47;;;-2.90;70.40;;;0.37;46.03;98999.97;5031958;28;20041;-42
2023/02/09 05:30:42;;;;;;;32.43;16.80;;;-2.90;70.40;;;0.38;45.36;99012.97;5031984;28;20414;-47
2023/02/09 05:33:11;;;;;;;32.47;16.40;;;-3.00;70.40;;;0.37;45.80;99006.06;5031599;28;20052;-44
2023/02/09 05:35:38;;;;;;;48.17;20.57;;;-3.00;70.60;;;0.39;46.32;99016.47;5031729;28;20393;-43
2023/02/09 05:38:06;;;;;;;36.73;18.87;;;-3.00;70.80;;;0.38;46.03;99009.53;5030455;28;20060;-43
2023/02/09 05:40:34;;;;;;;37.13;19.27;;;-3.10;70.50;;;0.37;45.24;99007.84;5031571;28;20395;-48
2023/02/09 05:43:02;;;;;;;32.30;17.90;;;-3.10;70.70;;;0.32;46.17;99009.78;5030506;28;20038;-46
2023/02/09 05:45:29;;;;;;;31.57;18.00;;;-3.00;70.30;;;0.28;46.09;99016.06;5031777;28;20068;-43
2023/02/09 05:47:57;;;;;;;29.47;17.57;;;-3.00;70.20;;;0.30;46.46;99017.69;5031693;28;20041;-43
2023/02/09 05:50:25;;;;;;;26.60;15.67;;;-3.00;70.50;;;0.25;45.81;99011.78;5031611;28;20518;-43
2023/02/09 05:52:57;;;;;;;36.20;15.77;;;-3.10;70.50;;;0.23;46.47;99020.63;5031071;28;20056;-45
2023/02/09 05:55:26;;;;;;;30.60;16.03;;;-3.20;70.90;;;0.14;46.54;99025.34;5031560;28;20052;-43
2023/02/09 05:57:53;;;;;;;38.03;17.17;;;-3.40;71.70;;;0.09;45.83;99026.44;5031435;28;20037;-44
2023/02/09 06:00:23;;;;;;;31.17;15.70;;;-3.50;72.40;;;0.04;46.58;99018.78;5031091;28;20501;-43
2023/02/09 06:02:51;;;;;;;27.07;14.80;;;-3.50;72.80;;;0.03;45.92;99022.28;5031087;28;20041;-43
2023/02/09 06:05:20;;;;;;;34.10;15.27;;;-3.60;72.80;;;-0.01;46.30;99028.56;5031449;28;20046;-44
2023/02/09 06:07:48;;;;;;;26.37;14.47;;;-3.60;73.10;;;-0.04;46.79;99023.44;5031265;28;20042;-43
2023/02/09 06:10:19;;;;;;;59.40;22.33;;;-3.60;73.50;;;-0.08;46.08;99035.81;5013423;28;20041;-45
2023/02/09 06:12:47;;;;;;;204.73;70.53;;;-3.60;73.80;;;-0.08;46.11;99038.44;5030508;28;20060;-43
2023/02/09 06:15:15;;;;;;;66.00;31.50;;;-3.70;73.70;;;-0.15;46.22;99031.75;5030946;28;20201;-44
2023/02/09 06:17:43;;;;;;;49.57;21.83;;;-3.70;74.10;;;-0.17;46.14;99033.56;5030848;28;20050;-42
2023/02/09 06:20:11;;;;;;;44.70;21.27;;;-3.80;74.30;;;-0.15;46.83;99036.97;5029670;28;20049;-43
2023/02/09 06:22:38;;;;;;;34.30;17.87;;;-3.70;74.70;;;-0.15;46.43;99039.59;5030444;28;20049;-43
2023/02/09 06:25:06;;;;;;;33.37;15.37;;;-3.70;74.60;;;-0.14;46.98;99033.44;5038159;28;20048;-46
2023/02/09 06:27:34;;;;;;;34.00;18.53;;;-3.70;74.50;;;-0.09;46.14;99038.50;5030631;28;20489;-42
2023/02/09 06:30:03;;;;;;;34.97;17.47;;;-3.60;74.00;;;-0.06;46.74;99041.84;5030706;28;20413;-45
2023/02/09 06:32:31;;;;;;;30.70;15.37;;;-3.60;73.70;;;-0.04;46.12;99042.66;5030270;28;20049;-45
2023/02/09 06:34:58;;;;;;;32.67;15.83;;;-3.50;73.60;;;-0.02;46.30;99045.19;5030838;28;20041;-42
2023/02/09 06:37:26;;;;;;;32.33;15.97;;;-3.50;73.90;;;-0.02;46.33;99050.41;5030351;28;20516;-43
2023/02/09 06:39:53;;;;;;;31.63;16.23;;;-3.50;74.00;;;0.01;46.38;99063.41;5030815;28;20052;-43
2023/02/09 06:42:21;;;;;;;29.90;16.73;;;-3.40;74.10;;;0.06;47.01;99068.44;5030450;28;20049;-42
2023/02/09 06:44:49;;;;;;;32.87;16.70;;;-3.40;73.90;;;0.13;46.80;99070.75;5030719;28;20045;-45
2023/02/09 06:47:17;;;;;;;32.97;16.63;;;-3.30;73.30;;;0.15;46.22;99068.94;5030765;28;20080;-43
2023/02/09 06:49:44;;;;;;;32.93;17.00;;;-3.30;73.30;;;0.17;45.98;99066.25;5030329;28;20181;-44
2023/02/09 06:52:12;;;;;;;33.43;16.83;;;-3.30;72.80;;;0.17;46.22;99072.34;5028798;28;20041;-45
2023/02/09 06:54:39;;;;;;;30.47;18.03;;;-3.30;72.80;;;0.21;46.84;99073.06;5033666;28;20046;-43
2023/02/09 06:57:07;;;;;;;32.93;16.27;;;-3.20;72.90;;;0.21;46.43;99067.84;5034456;28;20397;-43
2023/02/09 06:59:34;;;;;;;32.07;15.57;;;-3.20;72.60;;;0.17;46.57;99067.09;5034669;28;20061;-43
2023/02/09 07:02:02;;;;;;;30.10;14.80;;;-3.30;73.10;;;0.16;46.84;99057.56;5032964;28;20500;-41
2023/02/09 07:04:29;;;;;;;31.17;14.97;;;-3.30;73.20;;;0.17;46.31;99058.41;5034045;28;20050;-42
2023/02/09 07:06:57;;;;;;;30.80;16.03;;;-3.30;73.70;;;0.21;47.26;99061.75;5034106;28;20049;-42
2023/02/09 07:09:24;;;;;;;46.77;17.43;;;-3.20;73.60;;;0.24;46.52;99075.59;5041527;28;20045;-44
2023/02/09 07:11:52;;;;;;;47.03;17.47;;;-3.20;73.30;;;0.24;46.71;99074.75;5041585;28;20029;-43
2023/02/09 07:14:19;;;;;;;40.60;17.87;;;-3.20;73.40;;;0.25;46.69;99066.78;5034375;28;20048;-47
2023/02/09 07:16:47;;;;;;;29.50;15.27;;;-3.20;73.70;;;0.22;47.17;99077.41;5033211;28;20446;-42
2023/02/09 07:19:14;;;;;;;29.00;15.97;;;-3.20;73.60;;;0.25;46.93;99072.03;5034669;28;20077;-46
2023/02/09 07:21:42;;;;;;;32.57;17.07;;;-3.20;74.00;;;0.30;46.85;99077.09;5026800;28;20045;-45
2023/02/09 07:24:09;;;;;;;33.07;16.30;;;-3.20;73.60;;;0.27;47.30;99075.47;5034505;28;20045;-45
2023/02/09 07:26:37;;;;;;;29.27;16.97;;;-3.20;73.60;;;0.32;46.74;99077.91;5034389;28;20520;-43
2023/02/09 07:29:04;;;;;;;32.17;15.07;;;-3.10;73.80;;;0.35;47.03;99077.75;5034287;28;20043;-43
2023/02/09 07:31:32;;;;;;;30.70;15.67;;;-3.10;73.80;;;0.36;46.50;99076.84;5034241;28;20041;-43
2023/02/09 07:34:00;;;;;;;28.63;14.97;;;-3.10;73.90;;;0.39;47.22;99085.44;5033896;28;20037;-44
2023/02/09 07:36:27;;;;;;;28.17;15.60;;;-3.10;73.90;;;0.41;46.54;99084.50;5034167;28;20049;-45
2023/02/09 07:38:55;;;;;;;33.77;16.33;;;-3.10;73.90;;;0.44;47.14;99093.09;5029505;28;20045;-42
2023/02/09 07:41:24;;;;;;;32.00;16.43;;;-3.00;73.90;;;0.46;47.19;99085.19;5034232;28;20050;-43
2023/02/09 07:43:52;;;;;;;34.67;16.27;;;-3.00;74.00;;;0.48;46.95;99080.75;5033715;28;20053;-43
2023/02/09 07:46:21;;;;;;;30.20;15.30;;;-3.00;73.90;;;0.51;47.09;99085.88;5034245;28;20049;-45
2023/02/09 07:48:50;;;;;;;35.50;16.37;;;-3.00;74.00;;;0.52;46.83;99083.16;5033103;28;20061;-42
2023/02/09 07:51:24;;;;;;;30.50;15.73;;;-3.00;74.20;;;0.53;47.03;99079.63;5033890;28;20045;-44
2023/02/09 07:53:52;;;;;;;;;;;-3.00;74.20;;;0.44;46.60;99094.88;5026015;28;20030;-47
2023/02/09 07:56:20;;;;;;;29.20;14.30;;;-2.90;74.50;;;0.57;46.70;99099.56;5033905;28;19921;-45
2023/02/09 07:58:48;;;;;;;33.87;16.37;;;-2.90;74.30;;;0.58;46.70;99100.41;5033861;28;20053;-42
2023/02/09 08:01:16;;;;;;;34.63;17.17;;;-2.90;74.50;;;0.57;47.27;99102.19;5040469;28;20057;-42
2023/02/09 08:03:47;;;;;;;37.87;19.13;;;-2.90;74.50;;;0.60;46.78;99101.19;5025591;28;20050;-43
2023/02/09 08:06:40;;;;;;;42.37;17.60;;;-2.90;74.70;;;0.59;47.39;99099.50;5033829;28;20064;-43
2023/02/09 08:09:13;;;;;;;37.43;17.20;;;-2.80;74.70;;;0.70;47.48;99099.03;5028920;28;20493;-45
2023/02/09 08:11:57;;;;;;;35.33;18.53;;;-2.70;74.70;;;0.73;47.40;99107.63;5033640;28;20042;-44
2023/02/09 08:14:38;;;;;;;43.33;21.10;;;-2.70;74.80;;;0.80;47.43;99107.41;5032381;28;20037;-44
2023/02/09 08:17:26;;;;;;;33.63;17.30;;;-2.60;74.60;;;0.87;47.24;99121.94;5032622;28;20472;-43
2023/02/09 08:20:09;;;;;;;30.87;17.30;;;-2.50;74.40;;;0.90;46.90;99112.19;5026698;28;20429;-45
2023/02/09 08:22:44;;;;;;;28.67;17.03;;;-2.50;74.20;;;0.94;47.33;99108.50;5033327;28;20046;-44
2023/02/09 08:25:15;;;;;;;42.97;20.80;;;-2.50;74.20;;;1.00;47.34;99110.00;5032488;28;20532;-43
2023/02/09 08:27:43;;;;;;;33.17;17.37;;;-2.40;74.00;;;1.05;46.72;99108.06;5032155;28;20037;-44
2023/02/09 08:30:13;;;;;;;30.77;15.60;;;-2.40;74.10;;;1.10;47.12;99111.31;5033405;28;20528;-43
2023/02/09 08:32:41;;;;;;;28.47;15.33;;;-2.30;74.20;;;1.14;46.76;99106.78;5031791;28;20056;-44
2023/02/09 08:35:10;;;;;;;33.60;17.17;;;-2.30;73.60;;;1.18;47.19;99105.75;5033310;28;20151;-45
2023/02/09 08:37:37;;;;;;;29.17;16.07;;;-2.20;73.30;;;1.22;47.04;99109.94;5033206;28;20041;-43
2023/02/09 08:40:05;;;;;;;31.33;15.67;;;-2.20;73.80;;;1.25;47.39;99103.72;5033442;28;20041;-42
2023/02/09 08:42:32;;;;;;;33.20;16.07;;;-2.10;73.00;;;1.33;47.30;99105.06;5031221;28;20053;-47
2023/02/09 08:45:00;;;;;;;29.30;15.17;;;-2.00;72.80;;;1.41;47.25;99112.59;5032246;28;20049;-43
2023/02/09 08:47:27;;;;;;;27.03;15.67;;;-2.00;72.50;;;1.45;47.01;99106.28;5033036;28;20308;-44
2023/02/09 08:49:55;;;;;;;29.17;14.90;;;-2.00;72.10;;;1.52;46.66;99102.50;5033168;28;20046;-45
2023/02/09 08:52:23;;;;;;;28.00;14.63;;;-1.90;71.80;;;1.55;46.44;99098.88;5032832;28;20046;-43
2023/02/09 08:54:50;;;;;;;29.17;14.53;;;-1.90;70.90;;;1.61;46.95;99103.00;5033010;28;20048;-43
2023/02/09 08:57:18;;;;;;;26.80;14.17;;;-1.90;71.60;;;1.63;46.60;99101.16;5032721;28;20041;-45
2023/02/09 08:59:45;;;;;;;29.97;14.80;;;-1.80;71.60;;;1.67;46.82;99097.50;5032687;28;20037;-44
2023/02/09 09:02:13;;;;;;;27.60;14.93;;;-1.80;71.70;;;1.74;46.96;99106.75;5032618;28;20053;-44
2023/02/09 09:04:41;;;;;;;28.37;15.10;;;-1.70;71.20;;;1.77;46.78;99110.09;5032655;28;20045;-43
2023/02/09 09:07:08;;;;;;;24.50;13.80;;;-1.60;72.00;;;1.85;46.24;99103.66;5033001;28;20053;-43
2023/02/09 09:09:36;;;;;;;31.33;16.20;;;-1.60;71.50;;;1.91;46.61;99104.22;5031355;28;20042;-43
2023/02/09 09:12:04;;;;;;;35.67;16.63;;;-1.50;71.70;;;1.99;46.49;99110.91;5016262;28;20444;-43
2023/02/09 09:14:31;;;;;;;30.17;15.63;;;-1.40;71.70;;;2.08;46.47;99113.09;5025535;28;20049;-42
2023/02/09 09:16:59;;;;;;;27.30;14.63;;;-1.30;71.80;;;2.12;46.28;99112.03;5026562;28;20050;-43
2023/02/09 09:19:28;;;;;;;33.87;16.37;;;-1.30;71.40;;;2.19;46.88;99120.47;5027330;28;20048;-44
2023/02/09 09:21:57;;;;;;;34.17;17.80;;;-1.30;71.60;;;2.24;46.39;99111.44;5025995;28;20045;-47
2023/02/09 09:24:27;;;;;;;37.67;16.37;;;-1.20;71.40;;;2.28;46.38;99107.72;5040376;28;20412;-44
2023/02/09 09:26:54;;;;;;;40.30;18.70;;;-1.20;70.90;;;2.33;46.65;99116.25;5026249;28;20493;-44
2023/02/09 09:29:23;;;;;;;27.40;15.73;;;-1.10;70.80;;;2.38;46.09;99118.66;5022292;28;20049;-44
2023/02/09 09:31:50;;;;;;;23.33;13.57;;;-1.10;70.70;;;2.44;46.36;99120.13;5027065;28;20038;-46
2023/02/09 09:34:18;;;;;;;33.07;15.53;;;-1.00;70.40;;;2.50;45.88;99123.34;5026473;28;20112;-44
2023/02/09 09:36:45;;;;;;;30.47;15.03;;;-0.90;70.20;;;2.54;46.19;99116.16;5025582;28;20052;-44
2023/02/09 09:39:13;;;;;;;27.10;13.63;;;-0.80;69.60;;;2.60;45.97;99120.25;5026031;28;20060;-43
2023/02/09 09:41:44;;;;;;;27.23;14.80;;;-0.80;69.10;;;2.65;45.85;99126.13;5024549;28;20056;-44
2023/02/09 09:44:19;;;;;;;41.77;18.63;;;-0.80;68.70;;;2.71;46.09;99131.94;5025240;28;20041;-43
2023/02/09 09:46:50;;;;;;;33.03;18.57;;;-0.70;68.60;;;2.77;46.15;99130.78;5024556;28;20056;-43
2023/02/09 09:49:30;;;;;;;28.73;15.30;;;-0.60;68.30;;;2.77;45.70;99138.69;5024849;28;20090;-44
2023/02/09 09:52:05;;;;;;;28.80;15.37;;;-0.70;68.10;;;2.79;45.61;99141.22;5025565;28;20041;-44
2023/02/09 09:54:35;;;;;;;24.77;14.80;;;-0.60;69.20;;;2.82;45.98;99149.00;5026868;28;20049;-46
2023/02/09 09:57:13;;;;;;;26.57;15.93;;;-0.60;70.50;;;2.81;46.12;99148.16;5026123;28;20489;-43
2023/02/09 09:59:41;;;;;;;29.93;15.50;;;-0.60;70.00;;;2.78;45.86;99147.44;5026284;28;20052;-45
2023/02/09 10:02:29;;;;;;;28.73;14.53;;;-0.70;70.50;;;2.76;46.23;99152.78;5027523;28;20042;-45
2023/02/09 10:05:23;;;;;;;31.07;16.13;;;-0.60;71.10;;;2.80;46.10;99154.31;5026982;28;20076;-45
2023/02/09 10:08:34;;;;;;;28.75;15.93;;;-0.60;71.40;;;2.79;46.48;99157.00;5023094;28;20057;-43
2023/02/09 10:11:14;;;;;;;28.23;15.63;;;-0.60;72.90;;;2.87;46.50;99157.47;5044300;28;20500;-45
2023/02/09 10:13:53;;;;;;;28.90;15.30;;;-0.50;72.70;;;2.92;46.25;99152.84;5027893;28;20073;-45
2023/02/09 10:16:24;;;;;;;31.43;17.03;;;-0.50;72.20;;;3.02;46.69;99155.88;5031318;28;20044;-43
2023/02/09 10:18:54;;;;;;;33.27;15.97;;;-0.40;72.30;;;3.08;46.19;99147.69;5023024;28;20044;-43
2023/02/09 10:21:26;;;;;;;26.93;14.63;;;-0.30;71.20;;;3.13;46.59;99156.19;5031414;28;20053;-46
2023/02/09 10:24:13;;;;;;;29.40;15.57;;;-0.30;71.00;;;3.15;46.48;99155.19;5030837;28;20052;-44
2023/02/09 10:26:41;;;;;;;41.13;18.40;;;-0.20;70.90;;;3.25;46.43;99152.94;5030970;28;20489;-44
2023/02/09 10:29:12;;;;;;;38.03;19.53;;;-0.10;70.80;;;3.31;46.23;99157.03;5026076;28;20045;-44
2023/02/09 10:31:49;;;;;;;46.60;21.97;;;-0.10;70.70;;;3.35;46.42;99153.31;5029168;28;20042;-44
2023/02/09 10:34:37;;;;;;;46.13;22.67;;;0.00;70.10;;;3.40;46.37;99153.09;5025946;28;20038;-43
2023/02/09 10:37:16;;;;;;;32.13;16.70;;;0.10;70.20;;;3.48;46.12;99154.38;5024499;28;20038;-43
2023/02/09 10:39:54;;;;;;;29.47;16.33;;;0.10;69.80;;;3.50;46.16;99146.41;5026564;28;20096;-44
2023/02/09 10:42:32;;;;;;;29.03;15.93;;;0.20;69.70;;;3.57;46.41;99144.28;5026424;28;20053;-43
2023/02/09 10:45:12;;;;;;;31.67;16.47;;;0.20;69.70;;;3.64;46.04;99153.59;5022976;28;20037;-44